Time;durP1;ratioP1;P1;durP2;ratioP2;P2;SDS_P1;SDS_P2;PMS_P1;PMS_P2;Temp;Humidity;BMP_temperature;BMP_pressure;BME280_temperature;BME280_humidity;BME280_pressure;Samples;Min_cycle;Max_cycle;Signal;HPM_P1;HPM_P2
2022/01/21 00:00:34;;;;;;;123.80;54.88;;;;;;;;;;6259017;28;20053;-66
2022/01/21 00:03:36;;;;;;;143.95;55.60;;;;;;;;;;6262130;28;20049;-64
2022/01/21 00:06:39;;;;;;;138.93;58.53;;;;;;;;;;6257679;28;20052;-66
2022/01/21 00:09:46;;;;;;;162.30;57.50;;;;;;;;;;6253093;28;20060;-64
2022/01/21 00:12:52;;;;;;;156.40;58.10;;;;;;;;;;6261751;28;20056;-65
2022/01/21 00:15:54;;;;;;;137.27;59.83;;;;;;;;;;6255905;28;20066;-65
2022/01/21 00:19:00;;;;;;;144.52;59.97;;;;;;;;;;6258150;28;20046;-64
2022/01/21 00:32:00;;;;;;;136.82;57.72;;;;;;;;;;6255714;28;20045;-65
2022/01/21 00:35:02;;;;;;;137.27;59.30;;;;;;;;;;6254722;28;20053;-65
2022/01/21 00:38:04;;;;;;;127.80;56.35;;;;;;;;;;6258930;28;20052;-65
2022/01/21 00:41:07;;;;;;;130.98;55.28;;;;;;;;;;6254911;28;20557;-65
2022/01/21 00:44:10;;;;;;;168.95;56.47;;;;;;;;;;6259026;28;20191;-64
2022/01/21 00:47:11;;;;;;;141.50;54.83;;;;;;;;;;6254420;28;20179;-64
2022/01/21 00:50:14;;;;;;;132.52;55.88;;;;;;;;;;6250631;28;20072;-65
2022/01/21 00:53:15;;;;;;;132.45;56.50;;;;;;;;;;6252938;28;20421;-65
2022/01/21 00:56:17;;;;;;;140.93;56.83;;;;;;;;;;6250508;28;20049;-64
2022/01/21 00:59:20;;;;;;;179.80;57.63;;;;;;;;;;6252488;28;20207;-65
2022/01/21 01:02:22;;;;;;;142.32;58.97;;;;;;;;;;6253741;28;20064;-65
2022/01/21 01:05:23;;;;;;;137.43;58.25;;;;;;;;;;6250125;28;20123;-66
2022/01/21 01:08:25;;;;;;;145.40;59.22;;;;;;;;;;6251080;28;20110;-65
2022/01/21 01:11:42;;;;;;;137.88;59.17;;;;;;;;;;6250322;28;20065;-65
2022/01/21 01:21:23;;;;;;;140.70;59.63;;;;;;;;;;6250433;28;20045;-64
2022/01/21 01:27:59;;;;;;;129.90;56.25;;;;;;;;;;6196109;28;20049;-63
2022/01/21 01:31:03;;;;;;;143.27;59.75;;;;;;;;;;6204660;28;20641;-64
2022/01/21 01:34:04;;;;;;;142.00;58.10;;;;;;;;;;6245187;28;20049;-65
2022/01/21 01:37:14;;;;;;;137.20;57.75;;;;;;;;;;6246439;28;20450;-64
2022/01/21 01:40:22;;;;;;;143.27;58.10;;;;;;;;;;6249640;28;20052;-63
2022/01/21 01:50:14;;;;;;;145.60;58.75;;;;;;;;;;6253854;28;20053;-64
2022/01/21 01:53:17;;;;;;;139.38;58.10;;;;;;;;;;6249673;28;20159;-66
2022/01/21 01:56:21;;;;;;;137.65;58.25;;;;;;;;;;6251618;28;20441;-63
2022/01/21 01:59:24;;;;;;;140.73;58.90;;;;;;;;;;6249430;28;20107;-64
2022/01/21 02:02:27;;;;;;;146.55;60.10;;;;;;;;;;6258266;28;20076;-64
2022/01/21 02:05:28;;;;;;;147.30;60.75;;;;;;;;;;6258513;28;20077;-64
2022/01/21 02:08:31;;;;;;;143.85;60.40;;;;;;;;;;6268153;28;20071;-64
2022/01/21 02:11:32;;;;;;;134.02;59.65;;;;;;;;;;6259596;28;20182;-65
2022/01/21 02:14:37;;;;;;;147.52;60.40;;;;;;;;;;6260077;28;20058;-64
2022/01/21 02:21:31;;;;;;;129.63;55.65;;;;;;;;;;6249797;28;20049;-65
2022/01/21 02:24:46;;;;;;;131.25;57.42;;;;;;;;;;6253445;28;20047;-64
2022/01/21 02:27:49;;;;;;;132.32;58.33;;;;;;;;;;6253146;28;20155;-64
2022/01/21 02:30:54;;;;;;;148.80;59.22;;;;;;;;;;6259156;28;20088;-68
2022/01/21 02:33:55;;;;;;;137.52;57.95;;;;;;;;;;6260442;28;20045;-64
2022/01/21 02:36:58;;;;;;;137.23;56.20;;;;;;;;;;6256011;28;20061;-67
2022/01/21 02:40:00;;;;;;;131.57;57.28;;;;;;;;;;6255089;28;20119;-64
2022/01/21 02:43:01;;;;;;;127.85;57.22;;;;;;;;;;6251288;28;20191;-64
2022/01/21 02:46:07;;;;;;;141.98;57.13;;;;;;;;;;6262179;28;20049;-65
2022/01/21 02:49:08;;;;;;;132.98;58.25;;;;;;;;;;6259114;28;20406;-65
2022/01/21 02:52:13;;;;;;;132.32;56.67;;;;;;;;;;6258824;28;20120;-64
2022/01/21 02:55:15;;;;;;;138.43;55.90;;;;;;;;;;6257272;28;20064;-64
2022/01/21 02:58:17;;;;;;;132.13;57.05;;;;;;;;;;6262881;28;20069;-65
2022/01/21 03:01:19;;;;;;;139.55;57.58;;;;;;;;;;6256562;28;20065;-64
2022/01/21 03:04:22;;;;;;;129.77;56.45;;;;;;;;;;6256836;28;20128;-64
2022/01/21 03:07:25;;;;;;;120.78;53.80;;;;;;;;;;6255278;28;20049;-64
2022/01/21 03:10:27;;;;;;;129.73;56.42;;;;;;;;;;6259541;28;20126;-64
2022/01/21 03:13:28;;;;;;;126.95;54.38;;;;;;;;;;6261933;28;20262;-64
2022/01/21 03:16:30;;;;;;;133.45;56.05;;;;;;;;;;6262818;28;20071;-64
2022/01/21 03:19:32;;;;;;;125.82;56.65;;;;;;;;;;6264345;28;20317;-64
2022/01/21 03:22:36;;;;;;;130.63;58.13;;;;;;;;;;6261288;28;20268;-67
2022/01/21 03:25:37;;;;;;;133.10;56.22;;;;;;;;;;6262926;28;20524;-64
2022/01/21 03:28:39;;;;;;;131.68;56.95;;;;;;;;;;6259556;28;20084;-64
2022/01/21 03:31:41;;;;;;;126.20;56.00;;;;;;;;;;6261272;28;20127;-64
2022/01/21 03:34:42;;;;;;;134.50;56.38;;;;;;;;;;6258577;28;20061;-64
2022/01/21 03:37:45;;;;;;;132.65;54.72;;;;;;;;;;6256347;28;20081;-65
2022/01/21 03:40:47;;;;;;;132.82;55.83;;;;;;;;;;6262210;28;20534;-64
2022/01/21 03:43:49;;;;;;;123.72;54.70;;;;;;;;;;6261431;28;20519;-64
2022/01/21 03:46:50;;;;;;;134.75;57.22;;;;;;;;;;6258433;28;20500;-64
2022/01/21 03:49:55;;;;;;;129.45;55.45;;;;;;;;;;6259065;28;20086;-65
2022/01/21 03:52:59;;;;;;;126.18;54.53;;;;;;;;;;6259438;28;20052;-64
2022/01/21 03:56:01;;;;;;;140.40;56.93;;;;;;;;;;6259049;28;20187;-64
2022/01/21 03:59:02;;;;;;;129.73;55.45;;;;;;;;;;6259155;28;20504;-64
2022/01/21 04:02:06;;;;;;;130.48;55.80;;;;;;;;;;6252416;28;20111;-65
2022/01/21 04:05:08;;;;;;;149.77;57.20;;;;;;;;;;6260337;28;20072;-64
2022/01/21 04:08:12;;;;;;;121.47;54.83;;;;;;;;;;6256409;28;20049;-64
2022/01/21 04:11:14;;;;;;;133.30;56.20;;;;;;;;;;6257916;28;20191;-64
2022/01/21 04:14:15;;;;;;;131.32;54.75;;;;;;;;;;6255286;28;20174;-64
2022/01/21 04:17:18;;;;;;;129.13;53.88;;;;;;;;;;6261747;28;20068;-64
2022/01/21 04:20:20;;;;;;;133.07;55.83;;;;;;;;;;6254674;28;20045;-65
2022/01/21 04:23:23;;;;;;;130.00;54.65;;;;;;;;;;6253518;28;20421;-64
2022/01/21 04:26:25;;;;;;;138.60;55.38;;;;;;;;;;6259604;28;20523;-64
2022/01/21 04:29:27;;;;;;;137.00;55.58;;;;;;;;;;6255960;28;20096;-64
2022/01/21 04:32:28;;;;;;;134.52;55.08;;;;;;;;;;6259039;28;20045;-65
2022/01/21 04:35:30;;;;;;;129.77;52.50;;;;;;;;;;6257418;28;20045;-64
2022/01/21 04:38:33;;;;;;;131.07;53.22;;;;;;;;;;6254375;28;20130;-65
2022/01/21 04:47:12;;;;;;;128.48;52.58;;;;;;;;;;6257212;28;20059;-65
2022/01/21 04:48:21;;;;;;;133.05;53.70;;;;;;;;;;6255920;28;20045;-64
2022/01/21 04:51:27;;;;;;;124.85;51.85;;;;;;;;;;6258965;28;20056;-65
2022/01/21 04:54:30;;;;;;;122.10;51.35;;;;;;;;;;6256316;28;20037;-64
2022/01/21 04:57:32;;;;;;;118.07;52.03;;;;;;;;;;6253279;28;20049;-65
2022/01/21 05:00:34;;;;;;;123.22;51.58;;;;;;;;;;6257112;28;20065;-64
2022/01/21 05:03:37;;;;;;;113.18;48.17;;;;;;;;;;6250316;28;20525;-64
2022/01/21 05:06:40;;;;;;;125.07;50.88;;;;;;;;;;6251357;28;20505;-65
2022/01/21 05:09:43;;;;;;;121.30;50.28;;;;;;;;;;6250147;28;20050;-65
2022/01/21 05:12:45;;;;;;;119.15;49.58;;;;;;;;;;6250852;28;20045;-64
2022/01/21 05:16:00;;;;;;;114.57;47.53;;;;;;;;;;6254547;28;20049;-64
2022/01/21 05:19:05;;;;;;;120.32;49.20;;;;;;;;;;6250149;28;20050;-64
2022/01/21 05:22:06;;;;;;;110.13;46.47;;;;;;;;;;6257790;28;20045;-65
2022/01/21 05:25:16;;;;;;;109.00;47.72;;;;;;;;;;6255601;28;20141;-63
2022/01/21 05:28:18;;;;;;;113.35;47.35;;;;;;;;;;6253397;28;20045;-64
2022/01/21 05:31:19;;;;;;;112.85;48.85;;;;;;;;;;6251794;28;20132;-65
2022/01/21 05:34:21;;;;;;;119.75;49.58;;;;;;;;;;6250687;28;20119;-65
2022/01/21 05:37:22;;;;;;;110.07;48.88;;;;;;;;;;6249669;28;20477;-64
2022/01/21 05:40:25;;;;;;;122.88;48.55;;;;;;;;;;6253533;28;20188;-64
2022/01/21 05:43:27;;;;;;;127.50;54.30;;;;;;;;;;6250408;28;20056;-65
2022/01/21 05:46:43;;;;;;;120.88;50.78;;;;;;;;;;6260341;28;20049;-65
2022/01/21 05:49:45;;;;;;;108.60;48.70;;;;;;;;;;6254830;28;20049;-64
2022/01/21 05:52:47;;;;;;;112.95;47.50;;;;;;;;;;6251241;28;20045;-64
2022/01/21 05:55:50;;;;;;;113.93;48.63;;;;;;;;;;6249877;28;20132;-65
2022/01/21 05:58:52;;;;;;;107.38;47.78;;;;;;;;;;6249604;28;20118;-64
2022/01/21 06:01:54;;;;;;;109.55;46.80;;;;;;;;;;6247123;28;20060;-64
2022/01/21 06:04:55;;;;;;;111.00;48.00;;;;;;;;;;6250112;28;20410;-64
2022/01/21 06:07:57;;;;;;;103.80;47.60;;;;;;;;;;6247172;28;20128;-64
2022/01/21 06:11:00;;;;;;;106.72;48.20;;;;;;;;;;6253189;28;20049;-64
2022/01/21 06:14:02;;;;;;;109.63;47.95;;;;;;;;;;6252129;28;20127;-64
2022/01/21 06:17:04;;;;;;;99.10;46.00;;;;;;;;;;6252889;28;20048;-65
2022/01/21 06:20:08;;;;;;;103.88;46.45;;;;;;;;;;6251500;28;20121;-64
2022/01/21 06:23:09;;;;;;;103.00;44.17;;;;;;;;;;6256082;28;20510;-65
2022/01/21 06:26:12;;;;;;;107.78;43.78;;;;;;;;;;6252276;28;20497;-64
2022/01/21 06:29:14;;;;;;;124.60;40.55;;;;;;;;;;6250932;28;20623;-64
2022/01/21 06:32:15;;;;;;;93.22;42.72;;;;;;;;;;6252144;28;20132;-64
2022/01/21 06:35:17;;;;;;;94.93;41.97;;;;;;;;;;6255171;28;20519;-65
2022/01/21 06:38:20;;;;;;;92.32;41.75;;;;;;;;;;6248862;28;20056;-64
2022/01/21 06:41:23;;;;;;;100.35;43.83;;;;;;;;;;6255649;28;20106;-66
2022/01/21 06:44:24;;;;;;;95.32;41.53;;;;;;;;;;6250200;28;20573;-64
2022/01/21 06:47:26;;;;;;;97.38;43.35;;;;;;;;;;6254376;28;20077;-65
2022/01/21 06:50:28;;;;;;;94.28;41.17;;;;;;;;;;6246593;28;20042;-64
2022/01/21 06:53:29;;;;;;;92.45;40.95;;;;;;;;;;6256005;28;20465;-67
2022/01/21 06:56:32;;;;;;;103.38;41.17;;;;;;;;;;6253918;28;20119;-65
2022/01/21 06:59:34;;;;;;;90.93;41.70;;;;;;;;;;6256319;28;20089;-65
2022/01/21 07:02:36;;;;;;;89.85;41.75;;;;;;;;;;6253347;28;20087;-64
2022/01/21 07:05:38;;;;;;;100.65;42.85;;;;;;;;;;6257736;28;20139;-64
2022/01/21 07:08:39;;;;;;;87.85;40.70;;;;;;;;;;6253904;28;20409;-64
2022/01/21 07:11:42;;;;;;;95.40;40.03;;;;;;;;;;6255267;28;20133;-65
2022/01/21 07:14:44;;;;;;;101.43;43.38;;;;;;;;;;6255284;28;20073;-64
2022/01/21 07:17:46;;;;;;;87.07;41.78;;;;;;;;;;6252869;28;20038;-64
2022/01/21 07:20:47;;;;;;;83.45;39.17;;;;;;;;;;6252672;28;20046;-65
2022/01/21 07:23:49;;;;;;;89.05;40.00;;;;;;;;;;6257515;28;20183;-64
2022/01/21 07:26:52;;;;;;;131.18;42.88;;;;;;;;;;6255461;28;20139;-64
2022/01/21 07:29:54;;;;;;;285.17;53.45;;;;;;;;;;6254591;28;20049;-64
2022/01/21 07:32:55;;;;;;;106.72;41.72;;;;;;;;;;6259361;28;20094;-64
2022/01/21 07:35:57;;;;;;;134.32;44.05;;;;;;;;;;6258375;28;20053;-63
2022/01/21 07:38:58;;;;;;;119.30;42.47;;;;;;;;;;6256053;28;20112;-64
2022/01/21 07:42:01;;;;;;;85.72;39.35;;;;;;;;;;6256702;28;20069;-64
2022/01/21 07:45:03;;;;;;;86.32;38.50;;;;;;;;;;6253185;28;20060;-66
2022/01/21 07:48:06;;;;;;;84.60;38.88;;;;;;;;;;6252135;28;20050;-64
2022/01/21 07:51:07;;;;;;;85.07;38.72;;;;;;;;;;6256226;28;20394;-65
2022/01/21 07:54:10;;;;;;;93.50;38.60;;;;;;;;;;6249873;28;20468;-65
2022/01/21 07:57:12;;;;;;;109.35;40.35;;;;;;;;;;6257192;28;20136;-65
2022/01/21 08:00:15;;;;;;;92.22;40.15;;;;;;;;;;6261530;28;20127;-65
2022/01/21 08:03:16;;;;;;;84.82;39.90;;;;;;;;;;6262604;28;20401;-64
2022/01/21 08:06:18;;;;;;;98.28;41.42;;;;;;;;;;6259760;28;20041;-65
2022/01/21 08:09:24;;;;;;;89.78;41.17;;;;;;;;;;6261026;28;20049;-64
2022/01/21 08:12:26;;;;;;;85.78;40.40;;;;;;;;;;6261661;28;20072;-64
2022/01/21 08:15:28;;;;;;;88.03;39.60;;;;;;;;;;6259553;28;20171;-66
2022/01/21 08:18:30;;;;;;;85.18;39.42;;;;;;;;;;6258149;28;20099;-64
2022/01/21 08:21:31;;;;;;;78.82;36.33;;;;;;;;;;6256261;28;20069;-65
2022/01/21 08:24:33;;;;;;;84.38;38.92;;;;;;;;;;6255417;28;20369;-64
2022/01/21 08:27:37;;;;;;;84.10;36.67;;;;;;;;;;6259441;28;20175;-64
2022/01/21 08:30:39;;;;;;;91.20;39.53;;;;;;;;;;6258980;28;20508;-64
2022/01/21 08:33:41;;;;;;;85.50;36.78;;;;;;;;;;6259705;28;20405;-65
2022/01/21 08:36:43;;;;;;;84.25;39.55;;;;;;;;;;6259688;28;20155;-65
2022/01/21 08:39:45;;;;;;;88.20;39.30;;;;;;;;;;6259008;28;20057;-65
2022/01/21 08:42:48;;;;;;;78.60;38.35;;;;;;;;;;6255832;28;20118;-64
2022/01/21 08:45:49;;;;;;;85.60;37.83;;;;;;;;;;6260295;28;20547;-65
2022/01/21 08:48:51;;;;;;;82.20;38.75;;;;;;;;;;6258745;28;20129;-66
2022/01/21 08:51:55;;;;;;;89.13;40.28;;;;;;;;;;6254059;28;20183;-68
2022/01/21 08:54:57;;;;;;;81.53;36.88;;;;;;;;;;6255575;28;20049;-64
2022/01/21 08:58:00;;;;;;;75.50;36.97;;;;;;;;;;6257727;28;20100;-64
2022/01/21 09:01:02;;;;;;;79.75;37.30;;;;;;;;;;6257238;28;20527;-65
2022/01/21 09:04:04;;;;;;;83.22;37.80;;;;;;;;;;6254095;28;20586;-64
2022/01/21 09:07:05;;;;;;;77.88;37.28;;;;;;;;;;6258984;28;20124;-65
2022/01/21 09:10:09;;;;;;;82.85;37.53;;;;;;;;;;6253946;28;20057;-65
2022/01/21 09:13:12;;;;;;;88.13;36.72;;;;;;;;;;6255271;28;20068;-65
2022/01/21 09:16:15;;;;;;;82.10;39.20;;;;;;;;;;6256358;28;20612;-65
2022/01/21 09:19:17;;;;;;;81.53;37.67;;;;;;;;;;6537313;22;20024;-69
2022/01/21 09:22:18;;;;;;;83.82;36.67;;;;;;;;;;6249707;28;20045;-66
2022/01/21 09:25:20;;;;;;;80.68;37.50;;;;;;;;;;6260288;28;20493;-66
2022/01/21 09:28:23;;;;;;;81.80;38.13;;;;;;;;;;6249070;28;20191;-66
2022/01/21 09:31:25;;;;;;;108.78;40.63;;;;;;;;;;6247460;28;20379;-67
2022/01/21 09:34:28;;;;;;;89.97;39.83;;;;;;;;;;6248231;28;20627;-67
2022/01/21 09:37:30;;;;;;;85.20;37.65;;;;;;;;;;6250872;28;20488;-65
2022/01/21 09:40:33;;;;;;;81.65;37.30;;;;;;;;;;6246981;28;20092;-66
2022/01/21 09:43:38;;;;;;;85.57;38.78;;;;;;;;;;6247047;28;20421;-66
2022/01/21 09:46:43;;;;;;;94.28;39.70;;;;;;;;;;6249836;28;20489;-66
2022/01/21 09:49:45;;;;;;;92.50;39.15;;;;;;;;;;6254444;28;20053;-65
2022/01/21 09:52:46;;;;;;;89.18;39.45;;;;;;;;;;6247662;28;20079;-66
2022/01/21 09:55:48;;;;;;;92.00;39.55;;;;;;;;;;6248145;28;20142;-65
2022/01/21 09:58:51;;;;;;;99.82;41.47;;;;;;;;;;6247108;28;20132;-66
2022/01/21 10:01:55;;;;;;;96.88;43.25;;;;;;;;;;6253410;28;20053;-66
2022/01/21 10:04:59;;;;;;;102.03;42.17;;;;;;;;;;6250422;28;20249;-67
2022/01/21 10:08:01;;;;;;;106.07;43.73;;;;;;;;;;6251653;28;20048;-66
2022/01/21 10:11:02;;;;;;;101.22;41.75;;;;;;;;;;6253273;28;20470;-65
2022/01/21 10:14:05;;;;;;;98.20;41.72;;;;;;;;;;6253611;28;20049;-65
2022/01/21 10:17:07;;;;;;;102.40;41.72;;;;;;;;;;6252113;28;20050;-66
2022/01/21 10:20:14;;;;;;;103.30;43.10;;;;;;;;;;6242935;28;20498;-66
2022/01/21 10:23:20;;;;;;;97.80;41.03;;;;;;;;;;6231670;28;20049;-66
2022/01/21 10:26:23;;;;;;;91.95;39.80;;;;;;;;;;6230523;28;20192;-65
2022/01/21 10:29:35;;;;;;;97.40;42.08;;;;;;;;;;6224859;28;20046;-66
2022/01/21 10:32:39;;;;;;;98.30;43.25;;;;;;;;;;6229333;28;20116;-67
2022/01/21 10:35:46;;;;;;;96.90;42.40;;;;;;;;;;6230731;28;20132;-66
2022/01/21 10:38:50;;;;;;;94.13;41.65;;;;;;;;;;6233162;28;20126;-66
2022/01/21 10:41:51;;;;;;;96.32;41.28;;;;;;;;;;6233087;28;20064;-65
2022/01/21 10:44:55;;;;;;;104.07;42.15;;;;;;;;;;6241658;28;20125;-65
2022/01/21 10:47:56;;;;;;;93.93;42.42;;;;;;;;;;6229122;28;20077;-68
2022/01/21 10:51:17;;;;;;;106.35;42.72;;;;;;;;;;6233098;28;20526;-67
2022/01/21 10:54:20;;;;;;;112.80;42.97;;;;;;;;;;6226046;28;20050;-65
2022/01/21 10:57:22;;;;;;;99.50;43.55;;;;;;;;;;6230758;28;20045;-67
2022/01/21 11:00:25;;;;;;;92.72;40.85;;;;;;;;;;6230735;28;20132;-66
2022/01/21 11:03:28;;;;;;;91.45;40.47;;;;;;;;;;6236867;28;20073;-66
2022/01/21 11:06:37;;;;;;;88.50;40.00;;;;;;;;;;6232127;28;20188;-66
2022/01/21 11:09:39;;;;;;;102.93;43.15;;;;;;;;;;6235200;28;20049;-67
2022/01/21 11:12:41;;;;;;;86.55;39.83;;;;;;;;;;6238032;28;20041;-66
2022/01/21 11:15:46;;;;;;;92.30;41.65;;;;;;;;;;6236635;28;20128;-66
2022/01/21 11:18:58;;;;;;;98.13;43.38;;;;;;;;;;6238506;28;20053;-66
2022/01/21 11:22:04;;;;;;;89.03;39.38;;;;;;;;;;6237808;28;20060;-66
2022/01/21 11:25:06;;;;;;;95.03;40.58;;;;;;;;;;6236407;28;20088;-66
2022/01/21 11:28:08;;;;;;;97.18;42.08;;;;;;;;;;6238478;28;20069;-66
2022/01/21 11:31:11;;;;;;;91.43;39.85;;;;;;;;;;6234870;28;20124;-66
2022/01/21 11:34:13;;;;;;;88.47;39.40;;;;;;;;;;6233652;28;20688;-65
2022/01/21 11:37:15;;;;;;;86.13;36.83;;;;;;;;;;6241618;28;20080;-66
2022/01/21 11:40:16;;;;;;;88.57;39.22;;;;;;;;;;6234568;28;20139;-65
2022/01/21 11:43:18;;;;;;;228.35;95.07;;;;;;;;;;6235921;28;20085;-66
2022/01/21 11:49:37;;;;;;;81.90;38.40;;;;;;;;;;6225445;28;20498;-65
2022/01/21 11:52:44;;;;;;;78.38;34.25;;;;;;;;;;6236838;28;20195;-65
2022/01/21 11:55:47;;;;;;;75.13;32.50;;;;;;;;;;6238761;28;20054;-65
2022/01/21 11:59:02;;;;;;;74.70;34.28;;;;;;;;;;6238091;28;20502;-63
2022/01/21 12:02:23;;;;;;;83.05;35.92;;;;;;;;;;6236442;28;20058;-65
2022/01/21 12:05:27;;;;;;;79.55;33.70;;;;;;;;;;6237421;28;20081;-65
2022/01/21 12:08:45;;;;;;;80.78;34.50;;;;;;;;;;6238519;28;20077;-64
2022/01/21 12:11:57;;;;;;;71.18;32.40;;;;;;;;;;6237139;28;20261;-65
2022/01/21 12:15:03;;;;;;;77.35;34.53;;;;;;;;;;6238073;28;20049;-66
2022/01/21 12:18:17;;;;;;;76.68;33.33;;;;;;;;;;6238726;28;20494;-65
2022/01/21 12:21:29;;;;;;;76.65;34.08;;;;;;;;;;6226907;28;20134;-65
2022/01/21 12:25:05;;;;;;;88.00;36.00;;;;;;;;;;6236387;28;20065;-66
2022/01/21 12:28:17;;;;;;;80.20;34.83;;;;;;;;;;6238818;28;20135;-66
2022/01/21 12:31:20;;;;;;;78.68;34.38;;;;;;;;;;6234234;28;20065;-64
2022/01/21 12:34:23;;;;;;;87.07;37.25;;;;;;;;;;6232475;28;20045;-66
2022/01/21 12:37:37;;;;;;;82.15;35.83;;;;;;;;;;6232357;28;20490;-66
2022/01/21 12:40:39;;;;;;;80.70;37.05;;;;;;;;;;6233182;28;20061;-65
2022/01/21 12:43:47;;;;;;;90.25;38.85;;;;;;;;;;6233391;28;20049;-66
2022/01/21 12:46:52;;;;;;;85.32;38.05;;;;;;;;;;6229764;28;20053;-66
2022/01/21 12:49:55;;;;;;;83.05;37.00;;;;;;;;;;6235924;28;20081;-67
2022/01/21 12:53:14;;;;;;;79.13;36.97;;;;;;;;;;6234470;28;20514;-66
2022/01/21 12:56:15;;;;;;;84.13;37.53;;;;;;;;;;6229545;28;20066;-66
2022/01/21 12:59:18;;;;;;;78.93;35.72;;;;;;;;;;6239243;28;20410;-67
2022/01/21 13:02:24;;;;;;;79.53;37.08;;;;;;;;;;6230598;28;20128;-65
2022/01/21 13:05:33;;;;;;;78.78;34.85;;;;;;;;;;6235449;28;20139;-66
2022/01/21 13:08:39;;;;;;;83.25;35.25;;;;;;;;;;6233174;28;20608;-65
2022/01/21 13:11:43;;;;;;;69.93;33.83;;;;;;;;;;6230483;28;20544;-65
2022/01/21 13:14:53;;;;;;;69.55;32.72;;;;;;;;;;6231712;28;20041;-66
2022/01/21 13:18:00;;;;;;;86.65;34.42;;;;;;;;;;6214425;28;20196;-66
2022/01/21 13:21:06;;;;;;;91.57;35.47;;;;;;;;;;6237438;28;20136;-66
2022/01/21 13:24:21;;;;;;;79.68;34.40;;;;;;;;;;6240717;28;20089;-66
2022/01/21 13:27:23;;;;;;;89.32;37.05;;;;;;;;;;6238184;28;20148;-65
2022/01/21 13:30:25;;;;;;;74.03;34.92;;;;;;;;;;6229435;28;20060;-65
2022/01/21 13:33:31;;;;;;;74.57;33.90;;;;;;;;;;6234729;28;20073;-65
2022/01/21 13:36:38;;;;;;;73.35;32.88;;;;;;;;;;6225910;28;20046;-65
2022/01/21 13:39:41;;;;;;;69.60;32.80;;;;;;;;;;6228003;28;20057;-65
2022/01/21 13:42:43;;;;;;;64.45;33.13;;;;;;;;;;6226918;28;20053;-65
2022/01/21 13:45:55;;;;;;;70.18;32.92;;;;;;;;;;6227369;28;20496;-65
2022/01/21 13:48:57;;;;;;;66.93;31.45;;;;;;;;;;6231193;28;20535;-65
2022/01/21 13:52:01;;;;;;;70.80;33.33;;;;;;;;;;6227992;28;20136;-64
2022/01/21 13:55:04;;;;;;;67.78;32.03;;;;;;;;;;6226776;28;20076;-66
2022/01/21 13:58:07;;;;;;;175.30;52.95;;;;;;;;;;6228265;28;20192;-66
2022/01/21 14:01:10;;;;;;;106.35;49.97;;;;;;;;;;6224503;28;20088;-66
2022/01/21 14:04:12;;;;;;;74.50;34.47;;;;;;;;;;6224444;28;20060;-65
2022/01/21 14:07:26;;;;;;;73.72;33.22;;;;;;;;;;6225232;28;20049;-65
2022/01/21 14:10:31;;;;;;;73.50;32.65;;;;;;;;;;6225601;28;20077;-66
2022/01/21 14:13:35;;;;;;;73.57;32.03;;;;;;;;;;6228407;28;20168;-66
2022/01/21 14:16:40;;;;;;;66.88;31.23;;;;;;;;;;6231045;28;20056;-65
2022/01/21 14:19:43;;;;;;;79.45;32.03;;;;;;;;;;6226729;28;20099;-66
2022/01/21 14:22:47;;;;;;;80.85;34.13;;;;;;;;;;6229309;28;20046;-65
2022/01/21 14:25:52;;;;;;;71.97;31.35;;;;;;;;;;6229597;28;20125;-65
2022/01/21 14:28:55;;;;;;;70.93;31.52;;;;;;;;;;6224169;28;20188;-65
2022/01/21 14:32:00;;;;;;;77.80;34.25;;;;;;;;;;6228691;28;20128;-65
2022/01/21 14:35:11;;;;;;;71.00;32.25;;;;;;;;;;6221288;28;20176;-65
2022/01/21 14:38:14;;;;;;;72.55;31.77;;;;;;;;;;6221753;28;20057;-65
2022/01/21 14:41:17;;;;;;;72.85;32.72;;;;;;;;;;6222033;28;20482;-65
2022/01/21 14:44:37;;;;;;;80.75;32.05;;;;;;;;;;6226917;28;20392;-66
2022/01/21 14:47:39;;;;;;;77.63;33.95;;;;;;;;;;6225514;28;20112;-65
2022/01/21 14:50:41;;;;;;;66.05;31.65;;;;;;;;;;6226474;28;20105;-66
2022/01/21 14:53:45;;;;;;;75.82;32.58;;;;;;;;;;6230045;28;20735;-65
2022/01/21 14:56:59;;;;;;;79.20;31.80;;;;;;;;;;6229702;28;20049;-66
2022/01/21 15:00:02;;;;;;;;;;;;;;;;;;6235045;28;20496;-65
2022/01/21 15:03:08;;;;;;;73.55;32.63;;;;;;;;;;6239222;28;19929;-65
2022/01/21 15:06:11;;;;;;;66.88;31.55;;;;;;;;;;6239453;28;20060;-66
2022/01/21 15:09:15;;;;;;;74.10;31.97;;;;;;;;;;6229705;28;20038;-65
2022/01/21 15:15:53;;;;;;;74.78;32.40;;;;;;;;;;6239749;28;20049;-66
2022/01/21 15:18:55;;;;;;;114.10;33.28;;;;;;;;;;6240541;28;20429;-65
2022/01/21 15:21:57;;;;;;;94.78;33.50;;;;;;;;;;6241126;28;20196;-64
2022/01/21 15:25:00;;;;;;;69.22;30.20;;;;;;;;;;6240050;28;20167;-66
2022/01/21 15:28:02;;;;;;;82.55;32.47;;;;;;;;;;6238133;28;20515;-66
2022/01/21 15:31:04;;;;;;;74.78;31.67;;;;;;;;;;6230667;28;20115;-66
2022/01/21 15:34:07;;;;;;;73.32;33.00;;;;;;;;;;6235637;28;20061;-65
2022/01/21 15:37:12;;;;;;;90.32;34.08;;;;;;;;;;6229750;28;20058;-66
2022/01/21 15:40:16;;;;;;;73.70;31.15;;;;;;;;;;6235766;28;20422;-66
2022/01/21 15:43:17;;;;;;;74.33;31.17;;;;;;;;;;6230252;28;20387;-66
2022/01/21 15:46:19;;;;;;;86.78;33.28;;;;;;;;;;6239282;28;20460;-66
2022/01/21 15:49:21;;;;;;;75.35;33.13;;;;;;;;;;6233961;28;20493;-65
2022/01/21 15:52:23;;;;;;;73.18;30.80;;;;;;;;;;6233209;28;20525;-67
2022/01/21 15:55:26;;;;;;;73.38;30.83;;;;;;;;;;6239605;28;20500;-65
2022/01/21 15:58:28;;;;;;;77.13;30.98;;;;;;;;;;6232998;28;20053;-65
2022/01/21 16:01:30;;;;;;;76.03;31.83;;;;;;;;;;6234536;28;20065;-66
2022/01/21 16:04:32;;;;;;;76.95;31.55;;;;;;;;;;6238580;28;20085;-66
2022/01/21 16:07:35;;;;;;;77.05;33.15;;;;;;;;;;6236496;28;20140;-66
2022/01/21 16:10:38;;;;;;;72.30;31.58;;;;;;;;;;6241490;28;20180;-65
2022/01/21 16:13:41;;;;;;;74.88;32.58;;;;;;;;;;6236012;28;20548;-65
2022/01/21 16:16:42;;;;;;;83.80;31.65;;;;;;;;;;6237590;28;20053;-64
2022/01/21 16:19:44;;;;;;;72.45;32.90;;;;;;;;;;6240301;28;20057;-66
2022/01/21 16:22:46;;;;;;;72.30;31.45;;;;;;;;;;6241768;28;20421;-66
2022/01/21 16:25:49;;;;;;;78.32;31.65;;;;;;;;;;6241261;28;20476;-66
2022/01/21 16:28:51;;;;;;;75.65;32.03;;;;;;;;;;6238331;28;20046;-67
2022/01/21 16:31:53;;;;;;;75.72;32.25;;;;;;;;;;6234350;28;20052;-65
2022/01/21 16:34:54;;;;;;;74.40;31.27;;;;;;;;;;6235979;28;20414;-65
2022/01/21 16:37:56;;;;;;;76.88;32.38;;;;;;;;;;6235778;28;20046;-66
2022/01/21 16:40:59;;;;;;;77.35;34.03;;;;;;;;;;6236173;28;20080;-65
2022/01/21 16:44:00;;;;;;;80.25;33.83;;;;;;;;;;6234864;28;20172;-65
2022/01/21 16:47:02;;;;;;;83.47;33.55;;;;;;;;;;6236677;28;20132;-64
2022/01/21 16:50:08;;;;;;;88.25;34.53;;;;;;;;;;6236344;28;20422;-68
2022/01/21 16:53:10;;;;;;;81.22;34.33;;;;;;;;;;6236157;28;20130;-65
2022/01/21 16:56:13;;;;;;;78.45;33.70;;;;;;;;;;6236221;28;20060;-66
2022/01/21 16:59:14;;;;;;;83.47;35.15;;;;;;;;;;6236635;28;20080;-66
2022/01/21 17:02:16;;;;;;;81.63;35.15;;;;;;;;;;6237604;28;20616;-66
2022/01/21 17:05:17;;;;;;;81.28;35.17;;;;;;;;;;6236363;28;20062;-65
2022/01/21 17:08:20;;;;;;;83.57;36.47;;;;;;;;;;6233745;28;20450;-66
2022/01/21 17:11:23;;;;;;;86.18;36.50;;;;;;;;;;6236910;28;20041;-65
2022/01/21 17:14:25;;;;;;;83.15;36.85;;;;;;;;;;6240145;28;20136;-65
2022/01/21 17:17:26;;;;;;;83.85;35.85;;;;;;;;;;6236784;28;20089;-66
2022/01/21 17:20:28;;;;;;;76.55;33.90;;;;;;;;;;6234605;28;20199;-65
2022/01/21 17:23:29;;;;;;;78.78;34.40;;;;;;;;;;6235374;28;20141;-67
2022/01/21 17:26:33;;;;;;;87.22;37.80;;;;;;;;;;6231360;28;20469;-65
2022/01/21 17:29:34;;;;;;;84.15;37.40;;;;;;;;;;6237325;28;20136;-65
2022/01/21 17:32:37;;;;;;;87.55;37.45;;;;;;;;;;6234635;28;20132;-65
2022/01/21 17:35:39;;;;;;;89.72;38.67;;;;;;;;;;6235527;28;20077;-65
2022/01/21 17:38:40;;;;;;;81.15;37.45;;;;;;;;;;6229443;28;20042;-65
2022/01/21 17:41:43;;;;;;;78.80;36.35;;;;;;;;;;6235971;28;20529;-65
2022/01/21 17:44:45;;;;;;;83.55;36.03;;;;;;;;;;6236073;28;20073;-65
2022/01/21 17:47:47;;;;;;;75.35;35.20;;;;;;;;;;6230368;28;20092;-65
2022/01/21 17:50:48;;;;;;;86.15;36.88;;;;;;;;;;6235031;28;20525;-66
2022/01/21 17:53:50;;;;;;;85.30;36.75;;;;;;;;;;6237406;28;20050;-66
2022/01/21 17:56:53;;;;;;;78.68;36.53;;;;;;;;;;6235021;28;20092;-66
2022/01/21 17:59:54;;;;;;;80.57;36.47;;;;;;;;;;6238211;28;20513;-65
2022/01/21 18:02:58;;;;;;;83.22;38.50;;;;;;;;;;6230469;28;20050;-67
2022/01/21 18:05:59;;;;;;;82.25;36.70;;;;;;;;;;6237716;28;20046;-65
2022/01/21 18:09:07;;;;;;;79.85;37.33;;;;;;;;;;6229693;28;20129;-65
2022/01/21 18:12:10;;;;;;;82.43;36.75;;;;;;;;;;6233298;28;20045;-66
2022/01/21 18:15:12;;;;;;;76.83;35.53;;;;;;;;;;6232035;28;20136;-65
2022/01/21 18:18:14;;;;;;;88.03;36.72;;;;;;;;;;6230808;28;20405;-66
2022/01/21 18:21:16;;;;;;;79.15;36.42;;;;;;;;;;6231496;28;20041;-65